sensor_id;sensor_type;location;lat;lon;timestamp;temperature;humidity
23149;DHT22;11743;51.228;22.498;2022-08-19T00:00:08;19.20;99.90
23149;DHT22;11743;51.228;22.498;2022-08-19T00:00:31;19.30;99.90
23149;DHT22;11743;51.228;22.498;2022-08-19T00:00:53;19.30;99.90
23149;DHT22;11743;51.228;22.498;2022-08-19T00:01:17;19.30;99.90
23149;DHT22;11743;51.228;22.498;2022-08-19T00:01:54;19.40;99.90
23149;DHT22;11743;51.228;22.498;2022-08-19T00:02:24;19.30;99.90
23149;DHT22;11743;51.228;22.498;2022-08-19T00:02:46;19.30;99.90
23149;DHT22;11743;51.228;22.498;2022-08-19T00:03:11;19.30;99.90
23149;DHT22;11743;51.228;22.498;2022-08-19T00:03:33;19.30;99.90
23149;DHT22;11743;51.228;22.498;2022-08-19T00:04:00;19.30;99.90
23149;DHT22;11743;51.228;22.498;2022-08-19T00:04:29;19.30;99.90
23149;DHT22;11743;51.228;22.498;2022-08-19T00:04:51;19.30;99.90
23149;DHT22;11743;51.228;22.498;2022-08-19T00:05:17;19.30;99.90
23149;DHT22;11743;51.228;22.498;2022-08-19T00:05:43;19.30;99.90
23149;DHT22;11743;51.228;22.498;2022-08-19T00:06:07;19.20;99.90
23149;DHT22;11743;51.228;22.498;2022-08-19T00:06:30;19.20;99.90
23149;DHT22;11743;51.228;22.498;2022-08-19T00:06:56;19.30;99.90
23149;DHT22;11743;51.228;22.498;2022-08-19T00:07:19;19.20;99.90
23149;DHT22;11743;51.228;22.498;2022-08-19T00:07:45;19.20;99.90
23149;DHT22;11743;51.228;22.498;2022-08-19T00:08:07;19.30;99.90
23149;DHT22;11743;51.228;22.498;2022-08-19T00:08:34;19.20;99.90
23149;DHT22;11743;51.228;22.498;2022-08-19T00:08:57;19.20;99.90
23149;DHT22;11743;51.228;22.498;2022-08-19T00:09:23;19.20;99.90
23149;DHT22;11743;51.228;22.498;2022-08-19T00:09:46;19.20;99.90
23149;DHT22;11743;51.228;22.498;2022-08-19T00:10:12;19.30;99.90
23149;DHT22;11743;51.228;22.498;2022-08-19T00:10:34;19.30;99.90
23149;DHT22;11743;51.228;22.498;2022-08-19T00:10:57;19.30;99.90
23149;DHT22;11743;51.228;22.498;2022-08-19T00:11:21;19.40;99.90
23149;DHT22;11743;51.228;22.498;2022-08-19T00:11:46;19.40;99.90
23149;DHT22;11743;51.228;22.498;2022-08-19T00:12:09;19.40;99.90
23149;DHT22;11743;51.228;22.498;2022-08-19T00:12:39;19.40;99.90
23149;DHT22;11743;51.228;22.498;2022-08-19T00:13:07;19.40;99.90
23149;DHT22;11743;51.228;22.498;2022-08-19T00:13:29;19.40;99.90
23149;DHT22;11743;51.228;22.498;2022-08-19T00:13:52;19.40;99.90
23149;DHT22;11743;51.228;22.498;2022-08-19T00:14:18;19.40;99.90
23149;DHT22;11743;51.228;22.498;2022-08-19T00:14:54;19.50;99.90
23149;DHT22;11743;51.228;22.498;2022-08-19T00:15:19;19.50;99.90
23149;DHT22;11743;51.228;22.498;2022-08-19T00:15:41;19.50;99.90
23149;DHT22;11743;51.228;22.498;2022-08-19T00:16:06;19.50;99.90
23149;DHT22;11743;51.228;22.498;2022-08-19T00:16:31;19.50;99.90
23149;DHT22;11743;51.228;22.498;2022-08-19T00:16:53;19.50;99.90
23149;DHT22;11743;51.228;22.498;2022-08-19T00:17:16;19.50;99.90
23149;DHT22;11743;51.228;22.498;2022-08-19T00:17:39;19.50;99.90
23149;DHT22;11743;51.228;22.498;2022-08-19T00:18:04;19.40;99.90
23149;DHT22;11743;51.228;22.498;2022-08-19T00:18:26;19.50;99.90
23149;DHT22;11743;51.228;22.498;2022-08-19T00:18:49;19.40;99.90
23149;DHT22;11743;51.228;22.498;2022-08-19T00:19:17;19.40;99.90
23149;DHT22;11743;51.228;22.498;2022-08-19T00:19:39;19.40;99.90
23149;DHT22;11743;51.228;22.498;2022-08-19T00:20:04;19.40;99.90
23149;DHT22;11743;51.228;22.498;2022-08-19T00:20:29;19.40;99.90
23149;DHT22;11743;51.228;22.498;2022-08-19T00:20:52;19.40;99.90
23149;DHT22;11743;51.228;22.498;2022-08-19T00:21:16;19.40;99.90
23149;DHT22;11743;51.228;22.498;2022-08-19T00:21:41;19.30;99.90
23149;DHT22;11743;51.228;22.498;2022-08-19T00:22:05;19.40;99.90
23149;DHT22;11743;51.228;22.498;2022-08-19T00:22:27;19.30;99.90
23149;DHT22;11743;51.228;22.498;2022-08-19T00:22:50;19.30;99.90
23149;DHT22;11743;51.228;22.498;2022-08-19T00:23:13;19.30;99.90
23149;DHT22;11743;51.228;22.498;2022-08-19T00:23:37;19.30;99.90
23149;DHT22;11743;51.228;22.498;2022-08-19T00:24:00;19.30;99.90
23149;DHT22;11743;51.228;22.498;2022-08-19T00:24:26;19.30;99.90
23149;DHT22;11743;51.228;22.498;2022-08-19T00:24:50;19.20;99.90
23149;DHT22;11743;51.228;22.498;2022-08-19T00:25:17;19.20;99.90
23149;DHT22;11743;51.228;22.498;2022-08-19T00:25:54;19.20;99.90
23149;DHT22;11743;51.228;22.498;2022-08-19T00:26:22;19.20;99.90
23149;DHT22;11743;51.228;22.498;2022-08-19T00:26:46;19.20;99.90
23149;DHT22;11743;51.228;22.498;2022-08-19T00:27:09;19.20;99.90
23149;DHT22;11743;51.228;22.498;2022-08-19T00:27:50;19.20;99.90
23149;DHT22;11743;51.228;22.498;2022-08-19T00:28:13;19.20;99.90
23149;DHT22;11743;51.228;22.498;2022-08-19T00:28:35;19.20;99.90
23149;DHT22;11743;51.228;22.498;2022-08-19T00:28:58;19.20;99.90
23149;DHT22;11743;51.228;22.498;2022-08-19T00:29:23;19.20;99.90
23149;DHT22;11743;51.228;22.498;2022-08-19T00:29:46;19.10;99.90
23149;DHT22;11743;51.228;22.498;2022-08-19T00:30:14;19.90;99.90
23149;DHT22;11743;51.228;22.498;2022-08-19T00:30:38;19.10;99.90
23149;DHT22;11743;51.228;22.498;2022-08-19T00:31:00;19.10;99.90
23149;DHT22;11743;51.228;22.498;2022-08-19T00:31:23;19.20;99.90
23149;DHT22;11743;51.228;22.498;2022-08-19T00:31:50;19.20;99.90
23149;DHT22;11743;51.228;22.498;2022-08-19T00:32:19;19.10;99.90
23149;DHT22;11743;51.228;22.498;2022-08-19T00:32:49;19.20;99.90
23149;DHT22;11743;51.228;22.498;2022-08-19T00:33:14;19.10;99.90
23149;DHT22;11743;51.228;22.498;2022-08-19T00:33:38;19.10;99.90
23149;DHT22;11743;51.228;22.498;2022-08-19T00:34:00;19.00;99.90
23149;DHT22;11743;51.228;22.498;2022-08-19T00:34:23;19.10;99.90
23149;DHT22;11743;51.228;22.498;2022-08-19T00:34:46;19.10;99.90
23149;DHT22;11743;51.228;22.498;2022-08-19T00:35:11;19.10;99.90
23149;DHT22;11743;51.228;22.498;2022-08-19T00:35:36;19.10;99.90
23149;DHT22;11743;51.228;22.498;2022-08-19T00:36:05;19.10;99.90
23149;DHT22;11743;51.228;22.498;2022-08-19T00:36:32;19.10;99.90
23149;DHT22;11743;51.228;22.498;2022-08-19T00:36:57;19.10;99.90
23149;DHT22;11743;51.228;22.498;2022-08-19T00:37:23;19.10;99.90
23149;DHT22;11743;51.228;22.498;2022-08-19T00:37:49;19.10;99.90
23149;DHT22;11743;51.228;22.498;2022-08-19T00:38:14;19.10;99.90
23149;DHT22;11743;51.228;22.498;2022-08-19T00:38:56;19.10;99.90
23149;DHT22;11743;51.228;22.498;2022-08-19T00:39:18;19.10;99.90
23149;DHT22;11743;51.228;22.498;2022-08-19T00:39:40;19.10;99.90
23149;DHT22;11743;51.228;22.498;2022-08-19T00:40:05;19.20;99.90
23149;DHT22;11743;51.228;22.498;2022-08-19T00:40:28;19.20;99.90
23149;DHT22;11743;51.228;22.498;2022-08-19T00:40:52;19.10;99.90
23149;DHT22;11743;51.228;22.498;2022-08-19T00:41:18;19.10;99.90
23149;DHT22;11743;51.228;22.498;2022-08-19T00:41:50;19.10;99.90
23149;DHT22;11743;51.228;22.498;2022-08-19T00:42:15;19.10;99.90
23149;DHT22;11743;51.228;22.498;2022-08-19T00:42:38;19.10;99.90
23149;DHT22;11743;51.228;22.498;2022-08-19T00:43:00;19.10;99.90
23149;DHT22;11743;51.228;22.498;2022-08-19T00:43:24;19.10;99.90
23149;DHT22;11743;51.228;22.498;2022-08-19T00:44:26;19.10;99.90
23149;DHT22;11743;51.228;22.498;2022-08-19T00:44:53;19.10;99.90
23149;DHT22;11743;51.228;22.498;2022-08-19T00:45:19;19.10;99.90
23149;DHT22;11743;51.228;22.498;2022-08-19T00:45:41;19.10;99.90
23149;DHT22;11743;51.228;22.498;2022-08-19T00:46:05;19.10;99.90
23149;DHT22;11743;51.228;22.498;2022-08-19T00:46:30;19.10;99.90
23149;DHT22;11743;51.228;22.498;2022-08-19T00:46:57;19.00;99.90
23149;DHT22;11743;51.228;22.498;2022-08-19T00:47:23;19.00;99.90
23149;DHT22;11743;51.228;22.498;2022-08-19T00:47:49;19.10;99.90
23149;DHT22;11743;51.228;22.498;2022-08-19T00:48:11;19.10;99.90
23149;DHT22;11743;51.228;22.498;2022-08-19T00:48:36;19.00;99.90
23149;DHT22;11743;51.228;22.498;2022-08-19T00:49:00;19.00;99.90
23149;DHT22;11743;51.228;22.498;2022-08-19T00:49:31;19.00;99.90
23149;DHT22;11743;51.228;22.498;2022-08-19T00:49:58;19.00;99.90
23149;DHT22;11743;51.228;22.498;2022-08-19T00:50:21;19.00;99.90
23149;DHT22;11743;51.228;22.498;2022-08-19T00:51:13;19.00;99.90
23149;DHT22;11743;51.228;22.498;2022-08-19T00:51:35;19.00;99.90
23149;DHT22;11743;51.228;22.498;2022-08-19T00:52:11;19.00;99.90
23149;DHT22;11743;51.228;22.498;2022-08-19T00:52:37;19.00;99.90
23149;DHT22;11743;51.228;22.498;2022-08-19T00:53:15;18.90;99.90
23149;DHT22;11743;51.228;22.498;2022-08-19T00:53:40;19.00;99.90
23149;DHT22;11743;51.228;22.498;2022-08-19T00:54:07;19.00;99.90
23149;DHT22;11743;51.228;22.498;2022-08-19T00:54:36;19.00;99.90
23149;DHT22;11743;51.228;22.498;2022-08-19T00:55:01;19.00;99.90
23149;DHT22;11743;51.228;22.498;2022-08-19T00:55:25;19.00;99.90
23149;DHT22;11743;51.228;22.498;2022-08-19T00:55:50;19.00;99.90
23149;DHT22;11743;51.228;22.498;2022-08-19T00:56:13;18.90;99.90
23149;DHT22;11743;51.228;22.498;2022-08-19T00:56:38;18.90;99.90
23149;DHT22;11743;51.228;22.498;2022-08-19T00:57:04;18.90;99.90
23149;DHT22;11743;51.228;22.498;2022-08-19T00:57:39;19.00;99.90
23149;DHT22;11743;51.228;22.498;2022-08-19T00:58:06;18.90;99.90
23149;DHT22;11743;51.228;22.498;2022-08-19T00:58:32;18.90;99.90
23149;DHT22;11743;51.228;22.498;2022-08-19T00:58:56;18.90;99.90
23149;DHT22;11743;51.228;22.498;2022-08-19T00:59:22;18.90;99.90
23149;DHT22;11743;51.228;22.498;2022-08-19T01:00:08;18.90;99.90
23149;DHT22;11743;51.228;22.498;2022-08-19T01:00:35;19.30;99.90
23149;DHT22;11743;51.228;22.498;2022-08-19T01:01:03;18.90;99.90
23149;DHT22;11743;51.228;22.498;2022-08-19T01:01:27;18.90;99.90
23149;DHT22;11743;51.228;22.498;2022-08-19T01:01:49;18.90;99.90
23149;DHT22;11743;51.228;22.498;2022-08-19T01:02:15;18.90;99.90
23149;DHT22;11743;51.228;22.498;2022-08-19T01:02:43;18.90;99.90
23149;DHT22;11743;51.228;22.498;2022-08-19T01:03:10;18.80;99.90
23149;DHT22;11743;51.228;22.498;2022-08-19T01:03:39;18.90;99.90
23149;DHT22;11743;51.228;22.498;2022-08-19T01:04:21;18.90;99.90
23149;DHT22;11743;51.228;22.498;2022-08-19T01:04:43;18.90;99.90
23149;DHT22;11743;51.228;22.498;2022-08-19T01:05:11;18.90;99.90
23149;DHT22;11743;51.228;22.498;2022-08-19T01:05:41;18.80;99.90
23149;DHT22;11743;51.228;22.498;2022-08-19T01:06:05;18.90;99.90
23149;DHT22;11743;51.228;22.498;2022-08-19T01:06:27;18.90;99.90
23149;DHT22;11743;51.228;22.498;2022-08-19T01:06:55;18.90;99.90
23149;DHT22;11743;51.228;22.498;2022-08-19T01:07:19;18.90;99.90
23149;DHT22;11743;51.228;22.498;2022-08-19T01:07:46;18.80;99.90
23149;DHT22;11743;51.228;22.498;2022-08-19T01:08:10;18.90;99.90
23149;DHT22;11743;51.228;22.498;2022-08-19T01:08:39;18.80;99.90
23149;DHT22;11743;51.228;22.498;2022-08-19T01:09:01;18.80;99.90
23149;DHT22;11743;51.228;22.498;2022-08-19T01:09:24;18.80;99.90
23149;DHT22;11743;51.228;22.498;2022-08-19T01:09:46;18.70;99.90
23149;DHT22;11743;51.228;22.498;2022-08-19T01:10:15;18.80;99.90
23149;DHT22;11743;51.228;22.498;2022-08-19T01:10:50;18.80;99.90
23149;DHT22;11743;51.228;22.498;2022-08-19T01:11:13;18.80;99.90
23149;DHT22;11743;51.228;22.498;2022-08-19T01:11:40;18.80;99.90
23149;DHT22;11743;51.228;22.498;2022-08-19T01:12:05;18.80;99.90
23149;DHT22;11743;51.228;22.498;2022-08-19T01:12:28;18.80;99.90
23149;DHT22;11743;51.228;22.498;2022-08-19T01:12:52;18.80;99.90
23149;DHT22;11743;51.228;22.498;2022-08-19T01:13:19;18.80;99.90
23149;DHT22;11743;51.228;22.498;2022-08-19T01:13:44;18.90;99.90
23149;DHT22;11743;51.228;22.498;2022-08-19T01:14:11;18.80;99.90
23149;DHT22;11743;51.228;22.498;2022-08-19T01:14:37;18.90;99.90
23149;DHT22;11743;51.228;22.498;2022-08-19T01:15:06;18.80;99.90
23149;DHT22;11743;51.228;22.498;2022-08-19T01:15:36;18.80;99.90
23149;DHT22;11743;51.228;22.498;2022-08-19T01:16:08;19.50;99.90
23149;DHT22;11743;51.228;22.498;2022-08-19T01:16:32;18.90;99.90
23149;DHT22;11743;51.228;22.498;2022-08-19T01:16:57;18.90;99.90
23149;DHT22;11743;51.228;22.498;2022-08-19T01:17:27;18.90;99.90
23149;DHT22;11743;51.228;22.498;2022-08-19T01:17:49;19.00;99.90
23149;DHT22;11743;51.228;22.498;2022-08-19T01:18:16;19.00;99.90
23149;DHT22;11743;51.228;22.498;2022-08-19T01:18:41;19.00;99.90
23149;DHT22;11743;51.228;22.498;2022-08-19T01:19:21;19.00;99.90
23149;DHT22;11743;51.228;22.498;2022-08-19T01:19:47;19.00;99.90
23149;DHT22;11743;51.228;22.498;2022-08-19T01:20:14;18.80;99.90
23149;DHT22;11743;51.228;22.498;2022-08-19T01:20:39;18.90;99.90
23149;DHT22;11743;51.228;22.498;2022-08-19T01:21:09;18.90;99.90
23149;DHT22;11743;51.228;22.498;2022-08-19T01:21:36;18.90;99.90
23149;DHT22;11743;51.228;22.498;2022-08-19T01:22:32;18.90;99.90
23149;DHT22;11743;51.228;22.498;2022-08-19T01:23:00;18.90;99.90
23149;DHT22;11743;51.228;22.498;2022-08-19T01:23:22;18.90;99.90
23149;DHT22;11743;51.228;22.498;2022-08-19T01:24:04;18.90;99.90
23149;DHT22;11743;51.228;22.498;2022-08-19T01:24:26;18.90;99.90
23149;DHT22;11743;51.228;22.498;2022-08-19T01:24:50;18.90;99.90
23149;DHT22;11743;51.228;22.498;2022-08-19T01:25:16;18.90;99.90
23149;DHT22;11743;51.228;22.498;2022-08-19T01:26:18;18.90;99.90
23149;DHT22;11743;51.228;22.498;2022-08-19T01:26:44;18.80;99.90
23149;DHT22;11743;51.228;22.498;2022-08-19T01:27:18;18.80;99.90
23149;DHT22;11743;51.228;22.498;2022-08-19T01:27:43;18.80;99.90
23149;DHT22;11743;51.228;22.498;2022-08-19T01:28:06;18.80;99.90
23149;DHT22;11743;51.228;22.498;2022-08-19T01:28:35;18.50;99.90
23149;DHT22;11743;51.228;22.498;2022-08-19T01:29:02;18.70;99.90
23149;DHT22;11743;51.228;22.498;2022-08-19T01:29:25;18.80;99.90
23149;DHT22;11743;51.228;22.498;2022-08-19T01:29:50;18.80;99.90
23149;DHT22;11743;51.228;22.498;2022-08-19T01:30:16;18.80;99.90
23149;DHT22;11743;51.228;22.498;2022-08-19T01:30:42;18.70;99.90
23149;DHT22;11743;51.228;22.498;2022-08-19T01:31:19;18.70;99.90
23149;DHT22;11743;51.228;22.498;2022-08-19T01:31:57;18.70;99.90
23149;DHT22;11743;51.228;22.498;2022-08-19T01:32:22;18.70;99.90
23149;DHT22;11743;51.228;22.498;2022-08-19T01:32:55;18.70;99.90
23149;DHT22;11743;51.228;22.498;2022-08-19T01:33:18;18.70;99.90
23149;DHT22;11743;51.228;22.498;2022-08-19T01:33:41;18.70;99.90
23149;DHT22;11743;51.228;22.498;2022-08-19T01:34:04;18.70;99.90
23149;DHT22;11743;51.228;22.498;2022-08-19T01:34:29;18.70;99.90
23149;DHT22;11743;51.228;22.498;2022-08-19T01:34:56;18.70;99.90
23149;DHT22;11743;51.228;22.498;2022-08-19T01:35:32;18.70;99.90
23149;DHT22;11743;51.228;22.498;2022-08-19T01:36:12;18.80;99.90
23149;DHT22;11743;51.228;22.498;2022-08-19T01:36:41;18.70;99.90
23149;DHT22;11743;51.228;22.498;2022-08-19T01:37:11;18.70;99.90
23149;DHT22;11743;51.228;22.498;2022-08-19T01:37:47;18.70;99.90
23149;DHT22;11743;51.228;22.498;2022-08-19T01:38:20;18.60;99.90
23149;DHT22;11743;51.228;22.498;2022-08-19T01:38:44;18.60;99.90
23149;DHT22;11743;51.228;22.498;2022-08-19T01:39:17;18.60;99.90
23149;DHT22;11743;51.228;22.498;2022-08-19T01:39:44;18.70;99.90
23149;DHT22;11743;51.228;22.498;2022-08-19T01:40:10;18.70;99.90
23149;DHT22;11743;51.228;22.498;2022-08-19T01:40:38;18.70;99.90
23149;DHT22;11743;51.228;22.498;2022-08-19T01:41:05;18.70;99.90
23149;DHT22;11743;51.228;22.498;2022-08-19T01:41:32;18.70;99.90
23149;DHT22;11743;51.228;22.498;2022-08-19T01:41:55;18.70;99.90
23149;DHT22;11743;51.228;22.498;2022-08-19T01:42:19;18.70;99.90
23149;DHT22;11743;51.228;22.498;2022-08-19T01:42:52;18.70;99.90
23149;DHT22;11743;51.228;22.498;2022-08-19T01:43:15;18.60;99.90
23149;DHT22;11743;51.228;22.498;2022-08-19T01:43:38;18.70;99.90
23149;DHT22;11743;51.228;22.498;2022-08-19T01:44:21;18.60;99.90
23149;DHT22;11743;51.228;22.498;2022-08-19T01:44:45;18.70;99.90
23149;DHT22;11743;51.228;22.498;2022-08-19T01:45:08;18.60;99.90
23149;DHT22;11743;51.228;22.498;2022-08-19T01:45:34;18.70;99.90
23149;DHT22;11743;51.228;22.498;2022-08-19T01:45:57;18.60;99.90
23149;DHT22;11743;51.228;22.498;2022-08-19T01:46:19;18.60;99.90
23149;DHT22;11743;51.228;22.498;2022-08-19T01:46:47;18.70;99.90
23149;DHT22;11743;51.228;22.498;2022-08-19T01:47:10;18.70;99.90
23149;DHT22;11743;51.228;22.498;2022-08-19T01:47:37;19.40;99.90
23149;DHT22;11743;51.228;22.498;2022-08-19T01:48:03;18.60;99.90
23149;DHT22;11743;51.228;22.498;2022-08-19T01:48:28;18.60;99.90
23149;DHT22;11743;51.228;22.498;2022-08-19T01:48:57;18.60;99.90
23149;DHT22;11743;51.228;22.498;2022-08-19T01:49:21;18.60;99.90
23149;DHT22;11743;51.228;22.498;2022-08-19T01:49:46;18.60;99.90
23149;DHT22;11743;51.228;22.498;2022-08-19T01:50:10;18.60;99.90
23149;DHT22;11743;51.228;22.498;2022-08-19T01:50:33;18.60;99.90
23149;DHT22;11743;51.228;22.498;2022-08-19T01:50:56;18.60;99.90
23149;DHT22;11743;51.228;22.498;2022-08-19T01:51:18;18.60;99.90
23149;DHT22;11743;51.228;22.498;2022-08-19T01:51:40;18.60;99.90
23149;DHT22;11743;51.228;22.498;2022-08-19T01:52:03;18.60;99.90
23149;DHT22;11743;51.228;22.498;2022-08-19T01:52:27;18.60;99.90
23149;DHT22;11743;51.228;22.498;2022-08-19T01:52:53;18.60;99.90
23149;DHT22;11743;51.228;22.498;2022-08-19T01:53:28;18.60;99.90
23149;DHT22;11743;51.228;22.498;2022-08-19T01:53:54;18.60;99.90
23149;DHT22;11743;51.228;22.498;2022-08-19T01:54:24;18.60;99.90
23149;DHT22;11743;51.228;22.498;2022-08-19T01:54:50;18.60;99.90
23149;DHT22;11743;51.228;22.498;2022-08-19T01:55:14;18.60;99.90
23149;DHT22;11743;51.228;22.498;2022-08-19T01:55:39;18.60;99.90
23149;DHT22;11743;51.228;22.498;2022-08-19T01:56:03;18.60;99.90
23149;DHT22;11743;51.228;22.498;2022-08-19T01:56:27;18.50;99.90
23149;DHT22;11743;51.228;22.498;2022-08-19T01:56:58;18.60;99.90
23149;DHT22;11743;51.228;22.498;2022-08-19T01:57:31;18.50;99.90
23149;DHT22;11743;51.228;22.498;2022-08-19T01:57:58;18.60;99.90
23149;DHT22;11743;51.228;22.498;2022-08-19T01:58:23;18.60;99.90
23149;DHT22;11743;51.228;22.498;2022-08-19T01:58:54;18.50;99.90
23149;DHT22;11743;51.228;22.498;2022-08-19T01:59:21;18.50;99.90
23149;DHT22;11743;51.228;22.498;2022-08-19T01:59:47;18.50;99.90
23149;DHT22;11743;51.228;22.498;2022-08-19T02:00:16;18.50;99.90
23149;DHT22;11743;51.228;22.498;2022-08-19T02:00:39;18.50;99.90
23149;DHT22;11743;51.228;22.498;2022-08-19T02:01:01;18.50;99.90
23149;DHT22;11743;51.228;22.498;2022-08-19T02:01:26;18.50;99.90
23149;DHT22;11743;51.228;22.498;2022-08-19T02:02:42;18.50;99.90
23149;DHT22;11743;51.228;22.498;2022-08-19T02:03:04;18.50;99.90
23149;DHT22;11743;51.228;22.498;2022-08-19T02:03:29;18.40;99.90
23149;DHT22;11743;51.228;22.498;2022-08-19T02:03:50;18.40;99.90
23149;DHT22;11743;51.228;22.498;2022-08-19T02:04:17;18.50;99.90
23149;DHT22;11743;51.228;22.498;2022-08-19T02:04:39;18.50;99.90
23149;DHT22;11743;51.228;22.498;2022-08-19T02:05:01;18.40;99.90
23149;DHT22;11743;51.228;22.498;2022-08-19T02:05:23;18.50;99.90
23149;DHT22;11743;51.228;22.498;2022-08-19T02:05:45;18.40;99.90
23149;DHT22;11743;51.228;22.498;2022-08-19T02:06:07;18.40;99.90
23149;DHT22;11743;51.228;22.498;2022-08-19T02:06:31;18.40;99.90
23149;DHT22;11743;51.228;22.498;2022-08-19T02:06:54;18.40;99.90
23149;DHT22;11743;51.228;22.498;2022-08-19T02:07:19;18.40;99.90
23149;DHT22;11743;51.228;22.498;2022-08-19T02:07:42;18.40;99.90
23149;DHT22;11743;51.228;22.498;2022-08-19T02:08:04;18.40;99.90
23149;DHT22;11743;51.228;22.498;2022-08-19T02:08:27;18.40;99.90
23149;DHT22;11743;51.228;22.498;2022-08-19T02:08:49;18.40;99.90
23149;DHT22;11743;51.228;22.498;2022-08-19T02:09:14;18.40;99.90
23149;DHT22;11743;51.228;22.498;2022-08-19T02:09:37;18.40;99.90
23149;DHT22;11743;51.228;22.498;2022-08-19T02:10:08;18.40;99.90
23149;DHT22;11743;51.228;22.498;2022-08-19T02:10:34;18.40;99.90
23149;DHT22;11743;51.228;22.498;2022-08-19T02:10:59;18.40;99.90
23149;DHT22;11743;51.228;22.498;2022-08-19T02:11:31;18.40;99.90
23149;DHT22;11743;51.228;22.498;2022-08-19T02:11:55;18.40;99.90
23149;DHT22;11743;51.228;22.498;2022-08-19T02:12:17;18.40;99.90
23149;DHT22;11743;51.228;22.498;2022-08-19T02:12:39;18.40;99.90
23149;DHT22;11743;51.228;22.498;2022-08-19T02:13:01;18.40;99.90
23149;DHT22;11743;51.228;22.498;2022-08-19T02:13:26;18.30;99.90
23149;DHT22;11743;51.228;22.498;2022-08-19T02:13:48;18.40;99.90
23149;DHT22;11743;51.228;22.498;2022-08-19T02:14:11;18.30;99.90
23149;DHT22;11743;51.228;22.498;2022-08-19T02:14:34;18.40;99.90
23149;DHT22;11743;51.228;22.498;2022-08-19T02:14:56;18.30;99.90
23149;DHT22;11743;51.228;22.498;2022-08-19T02:15:19;18.30;99.90
23149;DHT22;11743;51.228;22.498;2022-08-19T02:15:41;18.40;99.90
23149;DHT22;11743;51.228;22.498;2022-08-19T02:16:03;18.30;99.90
23149;DHT22;11743;51.228;22.498;2022-08-19T02:16:25;18.30;99.90
23149;DHT22;11743;51.228;22.498;2022-08-19T02:16:46;18.30;99.90
23149;DHT22;11743;51.228;22.498;2022-08-19T02:17:08;18.30;99.90
23149;DHT22;11743;51.228;22.498;2022-08-19T02:17:30;18.30;99.90
23149;DHT22;11743;51.228;22.498;2022-08-19T02:17:53;18.30;99.90
23149;DHT22;11743;51.228;22.498;2022-08-19T02:18:15;18.30;99.90
23149;DHT22;11743;51.228;22.498;2022-08-19T02:18:37;18.30;99.90
23149;DHT22;11743;51.228;22.498;2022-08-19T02:18:59;18.30;99.90
23149;DHT22;11743;51.228;22.498;2022-08-19T02:19:22;18.30;99.90
23149;DHT22;11743;51.228;22.498;2022-08-19T02:19:45;18.30;99.90
23149;DHT22;11743;51.228;22.498;2022-08-19T02:20:07;18.30;99.90
23149;DHT22;11743;51.228;22.498;2022-08-19T02:20:29;18.30;99.90
23149;DHT22;11743;51.228;22.498;2022-08-19T02:20:54;18.30;99.90
23149;DHT22;11743;51.228;22.498;2022-08-19T02:21:18;18.30;99.90
23149;DHT22;11743;51.228;22.498;2022-08-19T02:21:40;18.30;99.90
23149;DHT22;11743;51.228;22.498;2022-08-19T02:22:03;18.30;99.90
23149;DHT22;11743;51.228;22.498;2022-08-19T02:22:25;18.30;99.90
23149;DHT22;11743;51.228;22.498;2022-08-19T02:22:47;18.30;99.90
23149;DHT22;11743;51.228;22.498;2022-08-19T02:23:11;18.30;99.90
23149;DHT22;11743;51.228;22.498;2022-08-19T02:23:36;18.30;99.90
23149;DHT22;11743;51.228;22.498;2022-08-19T02:23:59;18.30;99.90
23149;DHT22;11743;51.228;22.498;2022-08-19T02:24:21;18.30;99.90
23149;DHT22;11743;51.228;22.498;2022-08-19T02:24:42;18.30;99.90
23149;DHT22;11743;51.228;22.498;2022-08-19T02:25:05;18.30;99.90
23149;DHT22;11743;51.228;22.498;2022-08-19T02:25:27;18.30;99.90
23149;DHT22;11743;51.228;22.498;2022-08-19T02:25:51;18.30;99.90
23149;DHT22;11743;51.228;22.498;2022-08-19T02:26:13;18.30;99.90
23149;DHT22;11743;51.228;22.498;2022-08-19T02:26:35;18.30;99.90
23149;DHT22;11743;51.228;22.498;2022-08-19T02:26:57;18.30;99.90
23149;DHT22;11743;51.228;22.498;2022-08-19T02:27:22;18.30;99.90
23149;DHT22;11743;51.228;22.498;2022-08-19T02:27:44;18.30;99.90
23149;DHT22;11743;51.228;22.498;2022-08-19T02:28:06;18.30;99.90
23149;DHT22;11743;51.228;22.498;2022-08-19T02:28:28;18.30;99.90
23149;DHT22;11743;51.228;22.498;2022-08-19T02:28:49;18.30;99.90
23149;DHT22;11743;51.228;22.498;2022-08-19T02:29:11;18.30;99.90
23149;DHT22;11743;51.228;22.498;2022-08-19T02:29:33;18.30;99.90
23149;DHT22;11743;51.228;22.498;2022-08-19T02:29:55;18.30;99.90
23149;DHT22;11743;51.228;22.498;2022-08-19T02:30:17;18.30;99.90
23149;DHT22;11743;51.228;22.498;2022-08-19T02:30:41;18.30;99.90
23149;DHT22;11743;51.228;22.498;2022-08-19T02:31:08;18.30;99.90
23149;DHT22;11743;51.228;22.498;2022-08-19T02:31:30;18.30;99.90
23149;DHT22;11743;51.228;22.498;2022-08-19T02:31:52;18.30;99.90
23149;DHT22;11743;51.228;22.498;2022-08-19T02:32:14;18.30;99.90
23149;DHT22;11743;51.228;22.498;2022-08-19T02:32:36;18.30;99.90
23149;DHT22;11743;51.228;22.498;2022-08-19T02:33:05;18.30;99.90
23149;DHT22;11743;51.228;22.498;2022-08-19T02:33:27;18.30;99.90
23149;DHT22;11743;51.228;22.498;2022-08-19T02:33:49;18.40;99.90
23149;DHT22;11743;51.228;22.498;2022-08-19T02:34:11;18.40;99.90
23149;DHT22;11743;51.228;22.498;2022-08-19T02:34:34;18.40;99.90
23149;DHT22;11743;51.228;22.498;2022-08-19T02:34:56;18.40;99.90
23149;DHT22;11743;51.228;22.498;2022-08-19T02:35:18;18.40;99.90
23149;DHT22;11743;51.228;22.498;2022-08-19T02:35:44;18.40;99.90
23149;DHT22;11743;51.228;22.498;2022-08-19T02:36:08;18.40;99.90
23149;DHT22;11743;51.228;22.498;2022-08-19T02:36:30;18.40;99.90
23149;DHT22;11743;51.228;22.498;2022-08-19T02:36:52;18.30;99.90
23149;DHT22;11743;51.228;22.498;2022-08-19T02:37:14;18.30;99.90
23149;DHT22;11743;51.228;22.498;2022-08-19T02:37:55;18.30;99.90
23149;DHT22;11743;51.228;22.498;2022-08-19T02:38:36;18.30;99.90
23149;DHT22;11743;51.228;22.498;2022-08-19T02:38:58;18.30;99.90
23149;DHT22;11743;51.228;22.498;2022-08-19T02:39:21;18.30;99.90
23149;DHT22;11743;51.228;22.498;2022-08-19T02:39:43;18.30;99.90
23149;DHT22;11743;51.228;22.498;2022-08-19T02:40:05;18.30;99.90
23149;DHT22;11743;51.228;22.498;2022-08-19T02:40:33;18.30;99.90
23149;DHT22;11743;51.228;22.498;2022-08-19T02:40:59;18.30;99.90
23149;DHT22;11743;51.228;22.498;2022-08-19T02:41:28;18.30;99.90